createdAt,value
2022-09-07T00:02:19.737Z,29.28
2022-09-07T00:04:46.324Z,29.29
2022-09-07T00:07:12.973Z,29.27
2022-09-07T00:09:39.845Z,29.27
2022-09-07T00:12:06.394Z,29.26
2022-09-07T00:14:33.859Z,29.25
2022-09-07T00:17:00.331Z,29.25
2022-09-07T00:19:26.873Z,29.25
2022-09-07T00:21:53.343Z,29.26
2022-09-07T00:24:20.151Z,29.26
2022-09-07T00:26:46.795Z,29.24
2022-09-07T00:29:13.343Z,29.23
2022-09-07T00:31:39.924Z,29.23
2022-09-07T00:34:06.571Z,29.22
2022-09-07T00:36:33.083Z,29.22
2022-09-07T00:38:59.847Z,29.22
2022-09-07T00:41:26.463Z,29.20
2022-09-07T00:43:58.666Z,29.19
2022-09-07T00:46:32.341Z,29.20
2022-09-07T00:49:08.134Z,29.20
2022-09-07T00:51:46.234Z,29.19
2022-09-07T00:54:22.568Z,29.18
2022-09-07T00:56:52.761Z,29.19
2022-09-07T00:59:21.779Z,29.18
2022-09-07T01:01:48.727Z,29.18
2022-09-07T01:04:15.977Z,29.18
2022-09-07T01:06:43.585Z,29.17
2022-09-07T01:09:20.584Z,29.17
2022-09-07T01:11:51.104Z,29.16
2022-09-07T01:14:28.003Z,29.15
2022-09-07T01:17:39.486Z,29.14
2022-09-07T01:20:49.552Z,29.13
2022-09-07T01:23:43.638Z,29.14
2022-09-07T01:26:48.011Z,29.14
2022-09-07T01:29:17.959Z,29.13
2022-09-07T01:31:56.312Z,29.11
2022-09-07T01:34:25.813Z,29.12
2022-09-07T01:37:21.722Z,29.11
2022-09-07T01:40:00.819Z,29.10
2022-09-07T01:42:33.917Z,29.09
2022-09-07T01:45:02.215Z,29.10
2022-09-07T01:47:33.386Z,29.09
2022-09-07T01:50:10.659Z,29.09
2022-09-07T01:53:01.230Z,29.09
2022-09-07T01:55:35.209Z,29.08
2022-09-07T01:58:10.691Z,29.07
2022-09-07T02:00:40.492Z,29.07
2022-09-07T02:03:45.990Z,29.07
2022-09-07T02:06:24.707Z,29.06
2022-09-07T02:09:00.884Z,29.06
2022-09-07T02:11:37.987Z,29.06
2022-09-07T02:14:27.913Z,29.04
2022-09-07T02:17:12.284Z,29.05
2022-09-07T02:19:45.255Z,29.02
2022-09-07T02:22:16.827Z,29.02
2022-09-07T02:24:49.914Z,29.03
2022-09-07T02:27:24.846Z,29.02
2022-09-07T02:29:52.221Z,29.02
2022-09-07T02:32:19.140Z,29.02
2022-09-07T02:34:46.320Z,29.02
2022-09-07T02:37:16.724Z,29.01
2022-09-07T02:39:43.359Z,29.00
2022-09-07T02:42:09.942Z,29.00
2022-09-07T02:44:40.603Z,29.00
2022-09-07T02:47:19.154Z,29.00
2022-09-07T02:49:54.754Z,28.99
2022-09-07T02:52:31.376Z,28.98
2022-09-07T02:55:09.600Z,28.99
2022-09-07T02:57:46.814Z,28.96
2022-09-07T03:00:18.002Z,28.96
2022-09-07T03:03:20.812Z,28.97
2022-09-07T03:05:47.250Z,28.96
2022-09-07T03:08:32.215Z,28.94
2022-09-07T03:10:59.300Z,28.95
2022-09-07T03:13:28.567Z,28.95
2022-09-07T03:15:56.579Z,28.94
2022-09-07T03:18:24.781Z,28.93
2022-09-07T03:20:51.520Z,28.93
2022-09-07T03:23:18.533Z,28.92
2022-09-07T03:25:45.356Z,28.90
2022-09-07T03:28:12.075Z,28.90
2022-09-07T03:30:44.098Z,28.89
2022-09-07T03:33:10.766Z,28.86
2022-09-07T03:35:37.265Z,28.88
2022-09-07T03:40:42.574Z,28.82
2022-09-07T03:43:09.104Z,28.81
2022-09-07T03:45:35.630Z,28.79
2022-09-07T03:48:02.283Z,28.82
2022-09-07T03:50:29.314Z,28.80
2022-09-07T03:52:55.986Z,28.78
2022-09-07T03:55:22.507Z,28.78
2022-09-07T03:57:49.026Z,28.80
2022-09-07T04:00:16.207Z,28.77
2022-09-07T04:02:42.784Z,28.74
2022-09-07T04:05:09.415Z,28.74
2022-09-07T04:07:36.120Z,28.74
2022-09-07T04:10:02.880Z,28.74
2022-09-07T04:12:29.398Z,28.72
2022-09-07T04:14:55.906Z,28.71
2022-09-07T04:17:22.436Z,28.71
2022-09-07T04:19:49.034Z,28.70
2022-09-07T04:22:15.560Z,28.69
2022-09-07T04:24:42.220Z,28.68
2022-09-07T04:27:08.719Z,28.69
2022-09-07T04:29:35.281Z,28.66
2022-09-07T04:32:02.359Z,28.68
2022-09-07T04:34:28.901Z,28.68
2022-09-07T04:36:55.400Z,28.67
2022-09-07T04:39:21.886Z,28.65
2022-09-07T04:41:48.380Z,28.64
2022-09-07T04:44:16.926Z,28.63
2022-09-07T04:46:43.843Z,28.65
2022-09-07T04:49:11.957Z,28.63
2022-09-07T04:51:39.738Z,28.63
2022-09-07T04:54:07.081Z,28.62
2022-09-07T04:56:34.175Z,28.61
2022-09-07T04:59:01.893Z,28.60
2022-09-07T05:01:29.328Z,28.60
2022-09-07T05:03:55.901Z,28.58
2022-09-07T05:06:23.253Z,28.58
2022-09-07T05:08:52.329Z,28.57
2022-09-07T05:11:22.862Z,28.55
2022-09-07T05:13:51.953Z,28.55
2022-09-07T05:16:21.536Z,28.54
2022-09-07T05:18:52.396Z,28.55
2022-09-07T05:21:21.984Z,28.53
2022-09-07T05:23:53.406Z,28.53
2022-09-07T05:26:22.624Z,28.52
2022-09-07T05:28:50.429Z,28.52
2022-09-07T05:31:19.652Z,28.52
2022-09-07T05:36:36.150Z,28.49
2022-09-07T05:39:03.584Z,28.48
2022-09-07T05:41:30.496Z,28.48
2022-09-07T05:46:43.941Z,28.45
2022-09-07T05:49:10.536Z,28.44
2022-09-07T05:51:39.954Z,28.43
2022-09-07T05:54:06.858Z,28.45
2022-09-07T05:56:36.597Z,28.44
2022-09-07T05:59:03.697Z,28.42
2022-09-07T06:01:30.838Z,28.41
2022-09-07T06:03:57.767Z,28.41
2022-09-07T06:06:24.424Z,28.39
2022-09-07T06:08:54.202Z,28.41
2022-09-07T06:11:22.370Z,28.40
2022-09-07T06:13:49.456Z,28.39
2022-09-07T06:16:17.620Z,28.40
2022-09-07T06:18:46.391Z,28.37
2022-09-07T06:21:23.600Z,28.38
2022-09-07T06:23:51.426Z,28.36
2022-09-07T06:26:19.702Z,28.36
2022-09-07T06:28:49.840Z,28.36
2022-09-07T06:31:22.728Z,28.32
2022-09-07T06:33:49.847Z,28.33
2022-09-07T06:36:17.479Z,28.33
2022-09-07T06:38:44.586Z,28.35
2022-09-07T06:44:08.991Z,28.32
2022-09-07T06:49:23.676Z,28.31
2022-09-07T06:51:50.718Z,28.30
2022-09-07T06:57:09.249Z,28.29
2022-09-07T06:59:36.833Z,28.28
2022-09-07T07:02:04.324Z,28.28
2022-09-07T07:04:30.889Z,28.28
2022-09-07T07:06:57.467Z,28.27
2022-09-07T07:09:23.977Z,28.28
2022-09-07T07:11:50.480Z,28.29
2022-09-07T07:14:18.202Z,28.26
2022-09-07T07:16:44.837Z,28.26
2022-09-07T07:19:11.577Z,28.27
2022-09-07T07:22:03.585Z,28.27
2022-09-07T07:24:24.645Z,28.26
2022-09-07T07:26:51.261Z,28.25
2022-09-07T07:29:18.928Z,28.25
2022-09-07T07:31:46.968Z,28.24
2022-09-07T07:34:13.630Z,28.24
2022-09-07T07:36:40.198Z,28.24
2022-09-07T07:39:06.798Z,28.25
2022-09-07T07:44:20.786Z,28.24
2022-09-07T07:46:49.176Z,28.23
2022-09-07T07:49:16.048Z,28.22
2022-09-07T07:54:29.286Z,28.22
2022-09-07T07:56:55.762Z,28.21
2022-09-07T07:59:22.289Z,28.20
2022-09-07T08:01:49.163Z,28.20
2022-09-07T08:04:15.729Z,28.20
2022-09-07T08:06:43.143Z,28.20
2022-09-07T08:09:11.101Z,28.20
2022-09-07T08:11:40.095Z,28.18
2022-09-07T08:14:08.615Z,28.20
2022-09-07T08:16:36.303Z,28.19
2022-09-07T08:19:03.424Z,28.19
2022-09-07T08:21:29.912Z,28.19
2022-09-07T08:23:56.688Z,28.19
2022-09-07T08:26:23.147Z,28.19
2022-09-07T08:28:49.661Z,28.20
2022-09-07T08:31:17.411Z,28.18
2022-09-07T08:33:44.369Z,28.16
2022-09-07T08:36:16.486Z,28.17
2022-09-07T08:38:43.014Z,28.16
2022-09-07T08:41:28.164Z,28.17
2022-09-07T08:44:32.003Z,28.16
2022-09-07T08:47:23.209Z,28.15
2022-09-07T08:50:04.524Z,28.16
2022-09-07T08:52:36.820Z,28.16
2022-09-07T08:55:19.011Z,28.15
2022-09-07T08:57:53.927Z,28.14
2022-09-07T09:00:20.539Z,28.14
2022-09-07T09:03:28.644Z,28.15
2022-09-07T09:05:48.750Z,28.14
2022-09-07T09:08:18.410Z,28.14
2022-09-07T09:10:59.092Z,28.14
2022-09-07T09:13:47.255Z,28.13
2022-09-07T09:16:23.700Z,28.12
2022-09-07T09:19:29.122Z,28.14
2022-09-07T09:22:09.427Z,28.13
2022-09-07T09:24:39.981Z,28.13
2022-09-07T09:27:06.459Z,28.13
2022-09-07T09:29:33.533Z,28.13
2022-09-07T09:32:00.027Z,28.12
2022-09-07T09:34:29.456Z,28.12
2022-09-07T09:36:57.836Z,28.13
2022-09-07T09:39:26.148Z,28.13
2022-09-07T09:41:54.325Z,28.14
2022-09-07T09:44:21.708Z,28.14
2022-09-07T09:47:29.456Z,28.15
2022-09-07T09:49:40.600Z,28.16
2022-09-07T09:52:41.741Z,28.18
2022-09-07T09:55:30.640Z,28.18
2022-09-07T10:04:00.889Z,28.20
2022-09-07T10:06:29.511Z,28.22
2022-09-07T10:08:58.694Z,28.22
2022-09-07T10:14:45.110Z,28.27
2022-09-07T10:17:31.136Z,28.29
2022-09-07T10:20:22.263Z,28.31
2022-09-07T10:22:51.685Z,28.31
2022-09-07T10:25:41.897Z,28.32
2022-09-07T10:28:14.355Z,28.33
2022-09-07T10:31:15.253Z,28.33
2022-09-07T10:36:59.828Z,28.35
2022-09-07T10:39:32.617Z,28.37
2022-09-07T10:42:12.712Z,28.36
2022-09-07T10:45:02.348Z,28.37
2022-09-07T10:47:46.858Z,28.38
2022-09-07T10:50:42.617Z,28.39
2022-09-07T10:54:29.952Z,28.40
2022-09-07T10:57:09.655Z,28.41
2022-09-07T11:00:10.319Z,28.42
2022-09-07T11:02:40.302Z,28.42
2022-09-07T11:05:16.254Z,28.43
2022-09-07T11:07:42.649Z,28.46
2022-09-07T11:10:21.321Z,28.44
2022-09-07T11:15:42.474Z,28.46
2022-09-07T11:18:18.652Z,28.47
2022-09-07T11:20:56.589Z,28.48
2022-09-07T11:23:52.311Z,28.50
2022-09-07T11:26:30.046Z,28.52
2022-09-07T11:29:31.776Z,28.52
2022-09-07T11:32:01.150Z,28.53
2022-09-07T11:34:38.463Z,28.54
2022-09-07T11:37:18.916Z,28.55
2022-09-07T11:39:52.729Z,28.55
2022-09-07T11:45:35.189Z,28.57
2022-09-07T11:48:10.510Z,28.58
2022-09-07T11:50:43.402Z,28.59
2022-09-07T11:53:18.305Z,28.59
2022-09-07T11:55:50.324Z,28.61
2022-09-07T11:58:35.290Z,28.61
2022-09-07T12:01:16.332Z,28.62
2022-09-07T12:03:57.127Z,28.62
2022-09-07T12:06:41.684Z,28.63
2022-09-07T12:09:21.184Z,28.65
2022-09-07T12:12:02.906Z,28.65
2022-09-07T12:14:35.848Z,28.66
2022-09-07T12:17:08.443Z,28.68
2022-09-07T12:19:35.247Z,28.67
2022-09-07T12:22:02.058Z,28.67
2022-09-07T12:24:41.058Z,28.68
2022-09-07T12:27:19.718Z,28.68
2022-09-07T12:29:58.450Z,28.69
2022-09-07T12:32:54.521Z,28.68
2022-09-07T12:35:28.203Z,28.70
2022-09-07T12:37:57.706Z,28.70
2022-09-07T12:40:27.326Z,28.71
2022-09-07T12:43:12.438Z,28.70
2022-09-07T12:45:38.889Z,28.71
2022-09-07T12:48:23.424Z,28.71
2022-09-07T12:51:04.503Z,28.72
2022-09-07T12:53:48.016Z,28.73
2022-09-07T12:56:38.963Z,28.74
2022-09-07T12:59:23.537Z,28.74
2022-09-07T13:01:53.006Z,28.76
2022-09-07T13:04:52.569Z,28.75
2022-09-07T13:07:40.719Z,28.77
2022-09-07T13:10:26.551Z,28.77
2022-09-07T13:12:59.669Z,28.78
2022-09-07T13:15:41.522Z,28.79
2022-09-07T13:18:31.440Z,28.80
2022-09-07T13:21:06.927Z,28.82
2022-09-07T13:23:40.482Z,28.83
2022-09-07T13:26:10.664Z,28.85
2022-09-07T13:28:50.737Z,28.85
2022-09-07T13:31:24.081Z,28.86
2022-09-07T13:33:51.981Z,28.87
2022-09-07T13:36:40.454Z,28.87
2022-09-07T13:39:15.379Z,28.88
2022-09-07T13:41:48.202Z,28.88
2022-09-07T13:44:25.225Z,28.88
2022-09-07T13:46:58.120Z,28.89
2022-09-07T13:49:36.821Z,28.91
2022-09-07T13:52:09.025Z,28.92
2022-09-07T13:54:41.293Z,28.93
2022-09-07T13:57:19.862Z,28.93
2022-09-07T13:59:50.297Z,28.94
2022-09-07T14:02:24.749Z,28.95
2022-09-07T14:04:54.876Z,28.96
2022-09-07T14:07:26.534Z,28.97
2022-09-07T14:10:20.020Z,28.99
2022-09-07T14:12:49.147Z,28.99
2022-09-07T14:15:21.908Z,28.98
2022-09-07T14:17:52.775Z,28.98
2022-09-07T14:20:20.417Z,28.99
2022-09-07T14:22:51.987Z,29.01
2022-09-07T14:25:22.131Z,29.02
2022-09-07T14:27:49.539Z,29.01
2022-09-07T14:30:23.232Z,29.03
2022-09-07T14:32:52.763Z,29.06
2022-09-07T14:35:22.219Z,29.05
2022-09-07T14:37:49.895Z,29.05
2022-09-07T14:40:21.812Z,29.06
2022-09-07T14:42:53.778Z,29.05
2022-09-07T14:45:32.041Z,29.07
2022-09-07T14:47:59.362Z,29.05
2022-09-07T14:50:41.417Z,29.06
2022-09-07T14:56:10.360Z,29.07
2022-09-07T14:58:36.915Z,29.07
2022-09-07T15:01:39.360Z,29.07
2022-09-07T15:04:18.474Z,29.09
2022-09-07T15:07:02.207Z,29.10
2022-09-07T15:09:35.918Z,29.12
2022-09-07T15:12:29.754Z,29.11
2022-09-07T15:15:24.029Z,29.13
2022-09-07T15:17:51.957Z,29.12
2022-09-07T15:20:35.132Z,29.12
2022-09-07T15:23:09.024Z,29.12
2022-09-07T15:25:36.432Z,29.13
2022-09-07T15:28:03.872Z,29.13
2022-09-07T15:30:30.798Z,29.12
2022-09-07T15:32:57.727Z,29.12
2022-09-07T15:35:24.855Z,29.13
2022-09-07T15:38:59.291Z,29.13
2022-09-07T15:41:22.451Z,29.15
2022-09-07T15:43:50.853Z,29.15
2022-09-07T15:46:17.389Z,29.17
2022-09-07T15:48:52.418Z,29.15
2022-09-07T15:54:07.737Z,29.18
2022-09-07T15:56:38.902Z,29.20
2022-09-07T15:59:05.807Z,29.18
2022-09-07T16:04:19.485Z,29.20
2022-09-07T16:06:48.263Z,29.20
2022-09-07T16:09:15.475Z,29.20
2022-09-07T16:11:42.004Z,29.21
2022-09-07T16:14:11.707Z,29.22
2022-09-07T16:19:24.771Z,29.22
2022-09-07T16:21:51.270Z,29.23
2022-09-07T16:24:18.006Z,29.24
2022-09-07T16:26:44.835Z,29.24
2022-09-07T16:29:11.402Z,29.25
2022-09-07T16:31:38.443Z,29.24
2022-09-07T16:34:05.046Z,29.24
2022-09-07T16:36:31.516Z,29.25
2022-09-07T16:39:00.563Z,29.27
2022-09-07T16:41:31.268Z,29.26
2022-09-07T16:43:58.718Z,29.27
2022-09-07T16:46:29.136Z,29.27
2022-09-07T16:48:55.671Z,29.27
2022-09-07T16:51:23.968Z,29.28
2022-09-07T16:53:53.163Z,29.28
2022-09-07T16:56:23.388Z,29.29
2022-09-07T16:58:56.419Z,29.29
2022-09-07T17:01:26.406Z,29.31
2022-09-07T17:03:53.091Z,29.29
2022-09-07T17:06:21.916Z,29.29
2022-09-07T17:08:48.524Z,29.31
2022-09-07T17:11:22.208Z,29.29
2022-09-07T17:13:50.124Z,29.29
2022-09-07T17:16:19.816Z,29.29
2022-09-07T17:21:36.731Z,29.29
2022-09-07T17:24:05.378Z,29.27
2022-09-07T17:26:32.777Z,29.28
2022-09-07T17:29:01.175Z,29.27
2022-09-07T17:34:18.003Z,29.25
2022-09-07T17:36:44.538Z,29.25
2022-09-07T17:39:16.219Z,29.25
2022-09-07T17:41:44.227Z,29.25
2022-09-07T17:44:10.894Z,29.23
2022-09-07T17:46:37.635Z,29.23
2022-09-07T17:49:07.166Z,29.22
2022-09-07T17:51:33.890Z,29.23
2022-09-07T17:54:02.776Z,29.22
2022-09-07T17:56:31.062Z,29.23
2022-09-07T18:01:45.931Z,29.21
2022-09-07T18:04:13.219Z,29.21
2022-09-07T18:06:41.294Z,29.20
2022-09-07T18:09:07.801Z,29.20
2022-09-07T18:11:50.492Z,29.19
2022-09-07T18:14:18.464Z,29.18
2022-09-07T18:16:46.433Z,29.18
2022-09-07T18:19:13.778Z,29.17
2022-09-07T18:21:43.100Z,29.18
2022-09-07T18:24:18.799Z,29.17
2022-09-07T18:26:50.930Z,29.17
2022-09-07T18:29:31.263Z,29.17
2022-09-07T18:32:00.096Z,29.16
2022-09-07T18:34:28.567Z,29.15
2022-09-07T18:36:55.385Z,29.14
2022-09-07T18:39:22.076Z,29.14
2022-09-07T18:41:48.551Z,29.13
2022-09-07T18:47:01.464Z,29.14
2022-09-07T18:49:28.376Z,29.13
2022-09-07T18:54:41.797Z,29.11
2022-09-07T18:57:08.287Z,29.12
2022-09-07T18:59:34.760Z,29.10
2022-09-07T19:02:04.257Z,29.12
2022-09-07T19:07:20.605Z,29.11
2022-09-07T19:09:48.234Z,29.09
2022-09-07T19:12:15.287Z,29.11
2022-09-07T19:14:42.263Z,29.09
2022-09-07T19:17:10.956Z,29.09
2022-09-07T19:19:38.726Z,29.09
2022-09-07T19:22:06.031Z,29.09
2022-09-07T19:24:33.195Z,29.07
2022-09-07T19:27:01.047Z,29.08
2022-09-07T19:29:29.034Z,29.09
2022-09-07T19:32:04.696Z,29.08
2022-09-07T19:34:45.563Z,29.06
2022-09-07T19:37:13.360Z,29.06
2022-09-07T19:39:39.901Z,29.07
2022-09-07T19:42:06.839Z,29.07
2022-09-07T19:44:33.775Z,29.06
2022-09-07T19:47:00.839Z,29.04
2022-09-07T19:49:28.164Z,29.05
2022-09-07T19:51:54.823Z,29.04
2022-09-07T19:54:21.550Z,29.03
2022-09-07T19:56:48.040Z,29.04
2022-09-07T19:59:14.654Z,29.05
2022-09-07T20:01:46.084Z,29.02
2022-09-07T20:04:19.568Z,29.03
2022-09-07T20:06:49.970Z,29.03
2022-09-07T20:09:17.422Z,29.03
2022-09-07T20:11:46.716Z,29.01
2022-09-07T20:14:14.434Z,29.01
2022-09-07T20:16:41.796Z,29.01
2022-09-07T20:19:08.742Z,29.01
2022-09-07T20:21:36.960Z,29.01
2022-09-07T20:24:04.371Z,29.01
2022-09-07T20:26:32.275Z,29.01
2022-09-07T20:29:16.803Z,29.01
2022-09-07T20:31:46.727Z,29.00
2022-09-07T20:34:14.012Z,29.02
2022-09-07T20:36:40.552Z,29.02
2022-09-07T20:39:07.480Z,29.03
2022-09-07T20:41:34.873Z,29.02
2022-09-07T20:44:03.734Z,29.02
2022-09-07T20:46:30.969Z,29.01
2022-09-07T20:48:57.888Z,29.01
2022-09-07T20:51:24.611Z,29.02
2022-09-07T20:53:51.409Z,29.02
2022-09-07T20:56:23.387Z,29.01
2022-09-07T20:58:55.361Z,29.02
2022-09-07T21:01:22.928Z,29.01
2022-09-07T21:03:51.719Z,29.01
2022-09-07T21:06:19.324Z,29.01
2022-09-07T21:08:47.684Z,29.01
2022-09-07T21:11:17.077Z,29.01
2022-09-07T21:13:43.957Z,29.01
2022-09-07T21:16:15.420Z,29.00
2022-09-07T21:18:44.112Z,29.00
2022-09-07T21:21:20.489Z,29.00
2022-09-07T21:23:48.161Z,28.99
2022-09-07T21:26:19.707Z,29.00
2022-09-07T21:28:46.182Z,28.98
2022-09-07T21:31:12.717Z,28.99
2022-09-07T21:33:39.207Z,28.99
2022-09-07T21:36:11.080Z,28.99
2022-09-07T21:38:38.709Z,28.98
2022-09-07T21:41:13.088Z,28.98
2022-09-07T21:43:40.556Z,28.98
2022-09-07T21:46:12.132Z,28.97
2022-09-07T21:48:39.274Z,28.97
2022-09-07T21:51:06.179Z,28.97
2022-09-07T21:53:33.175Z,28.97
2022-09-07T21:56:01.910Z,28.96
2022-09-07T21:58:29.318Z,28.96
2022-09-07T22:00:57.219Z,28.95
2022-09-07T22:03:25.225Z,28.95
2022-09-07T22:05:51.931Z,28.95
2022-09-07T22:08:18.842Z,28.95
2022-09-07T22:10:46.503Z,28.95
2022-09-07T22:13:13.351Z,28.94
2022-09-07T22:15:41.596Z,28.94
2022-09-07T22:18:11.985Z,28.94
2022-09-07T22:20:39.166Z,28.94
2022-09-07T22:23:06.103Z,28.93
2022-09-07T22:25:32.891Z,28.92
2022-09-07T22:27:59.523Z,28.91
2022-09-07T22:30:26.157Z,28.93
2022-09-07T22:32:53.048Z,28.92
2022-09-07T22:35:20.984Z,28.92
2022-09-07T22:37:47.459Z,28.91
2022-09-07T22:40:14.813Z,28.91
2022-09-07T22:42:41.627Z,28.91
2022-09-07T22:45:08.891Z,28.90
2022-09-07T22:47:35.349Z,28.90
2022-09-07T22:50:01.862Z,28.89
2022-09-07T22:52:28.327Z,28.89
2022-09-07T22:54:54.940Z,28.88
2022-09-07T22:57:21.555Z,28.90
2022-09-07T22:59:48.003Z,28.88
2022-09-07T23:02:14.562Z,28.89
2022-09-07T23:04:41.255Z,28.87
2022-09-07T23:07:07.903Z,28.88
2022-09-07T23:09:34.435Z,28.87
2022-09-07T23:12:00.966Z,28.86
2022-09-07T23:14:27.599Z,28.87
2022-09-07T23:16:54.062Z,28.86
2022-09-07T23:19:21.492Z,28.86
2022-09-07T23:21:48.239Z,28.86
2022-09-07T23:24:17.361Z,28.86
2022-09-07T23:26:44.457Z,28.84
2022-09-07T23:29:13.293Z,28.84
2022-09-07T23:31:40.761Z,28.85
2022-09-07T23:34:08.064Z,28.83
2022-09-07T23:36:34.595Z,28.85
2022-09-07T23:39:01.631Z,28.84
2022-09-07T23:41:28.862Z,28.82
2022-09-07T23:43:55.933Z,28.82
2022-09-07T23:46:23.079Z,28.82
2022-09-07T23:48:50.393Z,28.82
2022-09-07T23:51:21.513Z,28.81
2022-09-07T23:53:49.824Z,28.80
2022-09-07T23:56:16.331Z,28.81
2022-09-07T23:58:43.124Z,28.80
